Time;durP1;ratioP1;P1;durP2;ratioP2;P2;SDS_P1;SDS_P2;PMS_P1;PMS_P2;Temp;Humidity;BMP_temperature;BMP_pressure;BME280_temperature;BME280_humidity;BME280_pressure;Samples;Min_cycle;Max_cycle;Signal;HPM_P1;HPM_P2
2021/03/14 00:02:18;;;;;;;7.78;1.73;;;5.20;85.60;;;;;;5095934;28;20107;-77
2021/03/14 00:04:44;;;;;;;5.03;1.45;;;5.20;86.20;;;;;;5095791;28;20028;-77
2021/03/14 00:07:10;;;;;;;5.32;1.85;;;5.10;85.70;;;;;;5077610;28;20040;-77
2021/03/14 00:09:36;;;;;;;7.57;2.30;;;5.10;85.80;;;;;;5095044;28;20535;-77
2021/03/14 00:12:04;;;;;;;7.05;1.90;;;5.20;85.90;;;;;;5077539;28;20476;-77
2021/03/14 00:14:30;;;;;;;8.75;2.15;;;5.10;85.90;;;;;;5095027;28;20032;-77
2021/03/14 00:16:56;;;;;;;11.43;2.58;;;5.10;85.90;;;;;;5095377;28;20028;-77
2021/03/14 00:19:21;;;;;;;7.03;1.88;;;5.20;85.90;;;;;;5095271;28;20039;-77
2021/03/14 00:21:47;;;;;;;5.57;1.83;;;5.20;86.00;;;;;;5057100;28;20031;-77
2021/03/14 00:24:13;;;;;;;6.30;1.83;;;5.20;86.10;;;;;;5091526;28;20066;-77
2021/03/14 00:26:38;;;;;;;6.05;1.90;;;5.10;86.10;;;;;;5094115;28;20039;-77
2021/03/14 00:29:05;;;;;;;7.05;1.98;;;5.20;86.80;;;;;;5076414;28;20028;-77
2021/03/14 00:31:31;;;;;;;6.05;1.77;;;5.20;86.20;;;;;;5094809;28;20024;-77
2021/03/14 00:33:57;;;;;;;5.43;1.95;;;5.20;86.30;;;;;;5076764;28;20496;-77
2021/03/14 00:36:22;;;;;;;9.18;2.40;;;5.20;86.30;;;;;;5094245;28;20035;-77
2021/03/14 00:38:48;;;;;;;5.95;2.30;;;5.20;86.30;;;;;;5094968;28;20047;-77
2021/03/14 00:41:56;;;;;;;7.57;2.30;;;5.20;86.50;;;;;;5094548;28;20040;-77
2021/03/14 00:44:03;;;;;;;10.85;2.45;;;5.20;86.50;;;;;;5074693;28;20466;-77
2021/03/14 00:46:32;;;;;;;6.35;2.05;;;5.20;86.80;;;;;;5039579;28;20056;-77
2021/03/14 00:48:57;;;;;;;4.50;2.20;;;5.20;86.90;;;;;;5073387;28;20032;-77
2021/03/14 00:51:24;;;;;;;8.25;1.98;;;5.20;87.00;;;;;;5071654;28;20413;-77
2021/03/14 00:53:51;;;;;;;8.05;2.17;;;5.20;87.80;;;;;;5073555;28;20106;-77
2021/03/14 00:56:17;;;;;;;10.07;2.20;;;5.30;87.40;;;;;;5055568;28;20028;-77
2021/03/14 00:58:43;;;;;;;8.60;2.15;;;5.30;87.30;;;;;;5077018;28;20020;-77
2021/03/14 01:01:08;;;;;;;10.05;2.47;;;5.30;87.20;;;;;;5072193;28;20058;-77
2021/03/14 01:03:34;;;;;;;13.65;2.40;;;5.40;87.30;;;;;;5082590;28;20031;-77
2021/03/14 01:05:59;;;;;;;9.07;2.35;;;5.40;87.30;;;;;;5042541;28;20044;-77
2021/03/14 01:08:26;;;;;;;9.18;2.00;;;5.40;87.20;;;;;;5042252;28;20037;-77
2021/03/14 01:10:51;;;;;;;7.47;2.03;;;5.40;87.20;;;;;;5074399;28;20451;-77
2021/03/14 01:13:17;;;;;;;11.75;2.78;;;5.40;87.20;;;;;;5093220;28;20073;-77
2021/03/14 01:15:42;;;;;;;7.90;2.05;;;5.40;87.20;;;;;;5065791;28;20024;-77
2021/03/14 01:18:08;;;;;;;10.13;2.33;;;5.40;87.20;;;;;;5074466;28;20389;-77
2021/03/14 01:20:34;;;;;;;5.18;1.70;;;5.40;87.10;;;;;;5070704;28;20020;-77
2021/03/14 01:22:59;;;;;;;6.78;2.13;;;5.40;87.10;;;;;;5056212;28;20107;-77
2021/03/14 01:25:25;;;;;;;6.20;1.92;;;5.40;87.10;;;;;;5037231;28;20040;-77
2021/03/14 01:27:51;;;;;;;5.93;1.60;;;5.40;87.00;;;;;;5055622;28;20040;-77
2021/03/14 01:30:18;;;;;;;11.02;2.17;;;5.40;87.10;;;;;;5047873;28;20131;-77
2021/03/14 01:32:45;;;;;;;4.57;1.77;;;5.50;86.90;;;;;;5094288;28;20111;-77
2021/03/14 01:35:12;;;;;;;4.95;1.90;;;5.50;86.90;;;;;;5050140;28;20392;-77
2021/03/14 01:37:38;;;;;;;8.88;2.30;;;5.50;86.90;;;;;;5072168;28;20039;-77
2021/03/14 01:40:04;;;;;;;7.05;2.00;;;5.50;86.70;;;;;;5049070;28;20025;-77
2021/03/14 01:42:31;;;;;;;9.15;2.00;;;5.40;86.70;;;;;;5075692;28;20511;-77
2021/03/14 01:44:57;;;;;;;9.00;2.17;;;5.50;86.90;;;;;;5080920;28;20040;-77
2021/03/14 01:47:36;;;;;;;8.35;2.05;;;5.50;86.70;;;;;;5088587;28;20036;-77
2021/03/14 01:50:10;;;;;;;8.30;1.85;;;5.50;86.80;;;;;;5075589;28;20068;-77
2021/03/14 01:52:37;;;;;;;6.80;2.13;;;5.50;86.70;;;;;;5055112;28;20049;-77
2021/03/14 01:55:04;;;;;;;11.00;2.50;;;5.50;86.50;;;;;;5073093;28;20054;-77
2021/03/14 01:57:31;;;;;;;7.60;1.92;;;5.50;86.40;;;;;;5073410;28;20021;-77
2021/03/14 01:59:57;;;;;;;7.38;1.70;;;5.50;86.20;;;;;;5073127;28;20493;-77
2021/03/14 02:02:23;;;;;;;7.93;1.90;;;5.50;86.20;;;;;;5039211;28;20177;-77
2021/03/14 02:04:48;;;;;;;6.72;2.17;;;5.50;86.20;;;;;;5072818;28;20111;-77
2021/03/14 02:07:15;;;;;;;5.40;1.75;;;5.50;86.10;;;;;;5072839;28;20017;-77
2021/03/14 02:09:41;;;;;;;15.68;2.35;;;5.50;85.90;;;;;;5073235;28;20043;-77
2021/03/14 02:12:10;;;;;;;12.93;2.47;;;5.50;86.00;;;;;;5073256;28;20382;-77
2021/03/14 02:14:38;;;;;;;9.68;1.80;;;5.50;86.20;;;;;;5072846;28;20025;-77
2021/03/14 02:17:07;;;;;;;11.05;1.92;;;5.50;86.20;;;;;;5072925;28;20051;-77
2021/03/14 02:19:34;;;;;;;;;;;5.50;86.20;;;;;;5073076;28;20036;-77
2021/03/14 02:22:01;;;;;;;8.88;2.10;;;5.40;85.80;;;;;;5072806;28;20305;-77
2021/03/14 02:24:33;;;;;;;8.27;1.63;;;5.40;86.20;;;;;;5072991;28;20056;-77
2021/03/14 02:27:03;;;;;;;7.35;1.60;;;5.30;86.10;;;;;;5072922;28;20017;-77
2021/03/14 02:29:30;;;;;;;7.60;1.65;;;5.30;85.90;;;;;;5072312;28;20029;-77
2021/03/14 02:31:57;;;;;;;6.90;2.30;;;5.20;86.10;;;;;;5054731;28;20021;-77
2021/03/14 02:34:30;;;;;;;10.25;1.60;;;5.20;86.20;;;;;;5054894;28;20033;-77
2021/03/14 02:36:57;;;;;;;10.50;1.98;;;5.20;87.00;;;;;;5072649;28;20429;-77
2021/03/14 02:39:24;;;;;;;6.88;1.80;;;5.10;86.90;;;;;;5054316;28;20032;-77
2021/03/14 02:41:54;;;;;;;12.07;1.98;;;5.00;86.40;;;;;;5038071;28;20508;-77
2021/03/14 02:44:29;;;;;;;11.77;1.88;;;5.00;86.50;;;;;;5053684;28;20181;-77
2021/03/14 02:46:55;;;;;;;10.93;1.70;;;4.90;86.60;;;;;;5072034;28;20036;-77
2021/03/14 02:49:21;;;;;;;17.17;2.67;;;4.90;86.80;;;;;;5037661;28;20082;-77
2021/03/14 02:51:48;;;;;;;13.43;2.10;;;4.90;86.80;;;;;;5062481;28;20040;-77
2021/03/14 02:54:16;;;;;;;7.78;1.52;;;4.90;87.00;;;;;;5074313;28;20024;-77
2021/03/14 02:56:43;;;;;;;8.57;1.60;;;4.90;87.10;;;;;;5086328;28;20107;-77
2021/03/14 02:59:09;;;;;;;10.77;2.10;;;4.90;87.30;;;;;;5064823;28;20073;-77
2021/03/14 03:01:35;;;;;;;6.88;1.48;;;4.90;87.30;;;;;;5078131;28;20052;-77
2021/03/14 03:04:01;;;;;;;8.32;1.83;;;4.90;87.30;;;;;;5076239;28;20109;-77
2021/03/14 03:06:29;;;;;;;11.82;2.33;;;4.90;87.20;;;;;;5054304;28;20466;-77
2021/03/14 03:08:56;;;;;;;4.30;1.52;;;4.90;87.10;;;;;;5054629;28;20028;-77
2021/03/14 03:11:23;;;;;;;16.75;2.28;;;5.00;87.20;;;;;;5074042;28;20042;-77
2021/03/14 03:13:50;;;;;;;9.02;1.73;;;5.00;87.30;;;;;;5053016;28;20029;-77
2021/03/14 03:16:17;;;;;;;10.43;2.38;;;5.00;87.20;;;;;;5052936;28;20021;-77
2021/03/14 03:18:44;;;;;;;8.70;2.13;;;5.00;87.00;;;;;;5054801;28;20021;-77
2021/03/14 03:21:11;;;;;;;9.80;2.15;;;5.00;87.10;;;;;;5050188;28;20107;-77
2021/03/14 03:23:37;;;;;;;9.57;1.98;;;5.00;87.20;;;;;;5087505;28;20370;-77
2021/03/14 03:26:04;;;;;;;13.52;2.17;;;5.00;87.10;;;;;;5042888;28;20116;-77
2021/03/14 03:28:30;;;;;;;12.75;2.40;;;5.00;87.20;;;;;;5077742;28;20042;-77
2021/03/14 03:30:56;;;;;;;12.27;2.20;;;5.00;87.20;;;;;;5072291;28;20119;-77
2021/03/14 03:33:21;;;;;;;7.40;2.42;;;4.90;87.30;;;;;;5071944;28;20116;-77
2021/03/14 03:35:47;;;;;;;10.35;2.40;;;4.90;87.50;;;;;;5092167;28;20107;-77
2021/03/14 03:38:13;;;;;;;9.82;1.95;;;4.90;87.50;;;;;;5061066;28;20032;-77
2021/03/14 03:40:39;;;;;;;9.60;2.20;;;4.90;87.50;;;;;;5052638;28;20033;-77
2021/03/14 03:43:26;;;;;;;7.68;2.03;;;4.90;87.60;;;;;;5090447;28;20028;-77
2021/03/14 03:45:55;;;;;;;12.27;1.92;;;4.90;87.60;;;;;;5074617;28;20454;-77
2021/03/14 03:48:36;;;;;;;11.90;2.10;;;4.90;87.60;;;;;;5072687;28;20067;-77
2021/03/14 03:51:03;;;;;;;12.00;1.92;;;4.90;87.60;;;;;;5075663;28;20055;-77
2021/03/14 03:53:31;;;;;;;11.80;2.70;;;4.90;87.60;;;;;;5077756;28;20024;-77
2021/03/14 03:55:57;;;;;;;8.55;2.42;;;4.90;87.50;;;;;;5078254;28;20040;-77
2021/03/14 03:58:25;;;;;;;7.85;2.22;;;5.00;87.50;;;;;;5095744;28;20078;-77
2021/03/14 04:00:52;;;;;;;11.50;2.35;;;5.00;87.50;;;;;;5095928;28;20465;-77
2021/03/14 04:03:20;;;;;;;12.55;2.88;;;5.00;87.50;;;;;;5077424;28;20389;-77
2021/03/14 04:05:46;;;;;;;11.40;2.13;;;5.00;87.40;;;;;;5095625;28;20020;-77
2021/03/14 04:08:12;;;;;;;7.47;2.17;;;5.00;87.40;;;;;;5095550;28;20035;-77
2021/03/14 04:10:39;;;;;;;13.15;2.50;;;5.00;87.30;;;;;;5095662;28;20062;-77
2021/03/14 04:13:06;;;;;;;11.30;2.08;;;5.00;87.20;;;;;;5095766;28;20035;-77
2021/03/14 04:15:33;;;;;;;10.07;2.20;;;5.00;87.20;;;;;;5095758;28;20523;-77
2021/03/14 04:17:59;;;;;;;14.52;2.53;;;5.00;87.20;;;;;;5095165;28;20032;-77
2021/03/14 04:20:30;;;;;;;10.30;2.10;;;5.00;87.20;;;;;;5095245;28;20032;-77
2021/03/14 04:22:59;;;;;;;11.90;2.03;;;5.00;87.90;;;;;;5095333;28;20028;-77
2021/03/14 04:25:25;;;;;;;13.43;2.42;;;5.00;87.20;;;;;;5095379;28;20079;-76
2021/03/14 04:27:52;;;;;;;13.13;2.22;;;5.00;87.30;;;;;;5095050;28;20054;-77
2021/03/14 04:30:21;;;;;;;12.68;2.15;;;4.90;87.30;;;;;;5077233;28;20039;-77
2021/03/14 04:32:48;;;;;;;8.73;2.00;;;4.90;87.40;;;;;;5094998;28;20433;-77
2021/03/14 04:35:14;;;;;;;12.73;2.10;;;4.90;87.40;;;;;;5095375;28;20040;-77
2021/03/14 04:37:41;;;;;;;12.77;2.30;;;4.80;87.40;;;;;;5095059;28;20115;-77
2021/03/14 04:40:09;;;;;;;11.85;2.45;;;4.80;87.50;;;;;;5094946;28;20035;-77
2021/03/14 04:42:37;;;;;;;9.77;1.92;;;4.80;87.50;;;;;;5076847;28;20024;-77
2021/03/14 04:45:04;;;;;;;7.55;2.13;;;4.80;87.60;;;;;;5094936;28;20027;-77
2021/03/14 04:47:30;;;;;;;11.75;2.13;;;4.70;87.50;;;;;;5095143;28;20020;-77
2021/03/14 04:49:56;;;;;;;7.63;2.17;;;4.70;87.50;;;;;;5094809;28;20032;-77
2021/03/14 04:52:22;;;;;;;12.43;2.40;;;4.70;87.50;;;;;;5094221;28;20040;-77
2021/03/14 04:54:50;;;;;;;10.38;1.88;;;4.70;87.60;;;;;;5077024;28;20157;-77
2021/03/14 04:57:17;;;;;;;12.30;2.50;;;4.70;87.60;;;;;;5094665;28;20555;-77
2021/03/14 04:59:44;;;;;;;13.13;2.55;;;4.60;87.60;;;;;;5094634;28;20028;-77
2021/03/14 05:02:12;;;;;;;10.05;2.35;;;4.60;87.60;;;;;;5076021;28;20086;-77
2021/03/14 05:04:38;;;;;;;13.10;2.13;;;4.60;87.60;;;;;;5094667;28;20055;-77
2021/03/14 05:07:04;;;;;;;7.10;1.90;;;4.60;87.70;;;;;;5076384;28;20028;-77
2021/03/14 05:09:31;;;;;;;11.88;2.05;;;4.60;87.70;;;;;;5076519;28;20028;-77
2021/03/14 05:11:57;;;;;;;8.50;2.15;;;4.60;87.70;;;;;;5094543;28;20442;-77
2021/03/14 05:14:23;;;;;;;10.70;2.47;;;4.60;87.70;;;;;;5056419;28;20111;-77
2021/03/14 05:16:49;;;;;;;11.77;2.30;;;4.60;87.60;;;;;;5071312;28;20020;-77
2021/03/14 05:19:16;;;;;;;9.15;2.15;;;4.60;87.60;;;;;;5076583;28;20478;-77
2021/03/14 05:21:42;;;;;;;9.18;2.13;;;4.60;87.60;;;;;;5094105;28;20115;-77
2021/03/14 05:24:14;;;;;;;7.65;2.10;;;4.50;87.70;;;;;;5093977;28;20108;-77
2021/03/14 05:26:43;;;;;;;6.72;1.83;;;4.50;87.80;;;;;;5075795;28;20123;-77
2021/03/14 05:29:11;;;;;;;11.52;2.28;;;4.50;87.80;;;;;;5075398;28;20042;-77
2021/03/14 05:31:38;;;;;;;10.80;2.30;;;4.40;87.90;;;;;;5093740;28;20505;-77
2021/03/14 05:34:07;;;;;;;9.60;1.65;;;4.40;87.90;;;;;;5093988;28;20024;-77
2021/03/14 05:36:33;;;;;;;12.10;2.00;;;4.40;87.90;;;;;;5094336;28;20026;-77
2021/03/14 05:39:01;;;;;;;11.27;2.00;;;4.40;87.90;;;;;;5076084;28;20086;-77
2021/03/14 05:41:27;;;;;;;10.73;2.17;;;4.40;88.00;;;;;;5093669;28;20024;-77
2021/03/14 05:43:53;;;;;;;9.35;2.10;;;4.40;88.00;;;;;;5093965;28;20031;-77
2021/03/14 05:46:22;;;;;;;12.18;2.08;;;4.40;88.70;;;;;;5075731;28;20032;-77
2021/03/14 05:48:48;;;;;;;10.88;2.28;;;4.40;88.10;;;;;;5093782;28;20089;-77
2021/03/14 05:51:25;;;;;;;13.77;2.13;;;4.40;88.00;;;;;;5070492;28;20052;-77
2021/03/14 05:53:55;;;;;;;8.57;1.63;;;4.40;88.10;;;;;;5072883;28;20052;-77
2021/03/14 05:56:22;;;;;;;11.00;2.33;;;4.50;88.00;;;;;;5073017;28;20115;-77
2021/03/14 05:58:50;;;;;;;16.75;2.53;;;4.50;87.80;;;;;;5072432;28;20054;-77
2021/03/14 06:01:17;;;;;;;11.15;2.13;;;4.50;87.80;;;;;;5072974;28;20028;-76
2021/03/14 06:03:44;;;;;;;10.95;2.38;;;4.50;87.80;;;;;;5072834;28;20040;-77
2021/03/14 06:06:16;;;;;;;15.07;2.72;;;4.60;87.90;;;;;;5055644;28;20238;-77
2021/03/14 06:08:42;;;;;;;13.48;2.33;;;4.60;87.80;;;;;;5055245;28;20462;-77
2021/03/14 06:11:10;;;;;;;11.48;2.30;;;4.60;87.70;;;;;;5072603;28;20036;-77
2021/03/14 06:13:37;;;;;;;14.68;2.60;;;4.60;87.90;;;;;;5054735;28;20024;-77
2021/03/14 06:16:02;;;;;;;11.15;2.50;;;4.60;87.70;;;;;;5055350;28;20438;-77
2021/03/14 06:18:28;;;;;;;11.00;2.20;;;4.70;87.70;;;;;;5054972;28;20136;-77
2021/03/14 06:20:55;;;;;;;15.10;2.63;;;4.70;87.80;;;;;;5072687;28;20034;-77
2021/03/14 06:23:22;;;;;;;10.52;2.50;;;4.70;88.20;;;;;;5038605;28;20059;-77
2021/03/14 06:25:53;;;;;;;16.08;3.13;;;4.70;88.60;;;;;;5072886;28;20023;-77
2021/03/14 06:28:48;;;;;;;13.05;2.45;;;4.70;89.20;;;;;;5073177;28;20029;-77
2021/03/14 06:31:21;;;;;;;6.82;1.88;;;4.70;89.70;;;;;;5053382;28;20127;-77
2021/03/14 06:33:48;;;;;;;13.88;2.80;;;4.70;90.10;;;;;;5072338;28;20056;-77
2021/03/14 06:36:21;;;;;;;10.55;2.35;;;4.70;90.00;;;;;;5072994;28;20031;-77
2021/03/14 06:38:48;;;;;;;16.20;2.80;;;4.70;90.10;;;;;;5072806;28;20028;-77
2021/03/14 06:41:19;;;;;;;10.60;2.35;;;4.70;90.10;;;;;;5054563;28;20033;-77
2021/03/14 06:43:50;;;;;;;13.05;2.53;;;4.70;90.10;;;;;;5068320;28;20021;-77
2021/03/14 06:46:24;;;;;;;11.90;2.47;;;4.80;90.10;;;;;;5072594;28;20078;-77
2021/03/14 06:49:14;;;;;;;14.90;2.50;;;4.80;90.10;;;;;;5054965;28;20115;-77
2021/03/14 06:51:44;;;;;;;14.45;2.78;;;4.80;90.10;;;;;;5069843;28;20043;-77
2021/03/14 06:54:36;;;;;;;13.02;2.55;;;4.80;90.10;;;;;;5092874;28;20027;-77
2021/03/14 06:57:13;;;;;;;6.13;1.85;;;4.80;90.20;;;;;;5092733;28;20017;-77
2021/03/14 06:59:41;;;;;;;11.23;2.50;;;4.80;90.20;;;;;;5092929;28;20024;-77
2021/03/14 07:02:09;;;;;;;13.45;1.98;;;4.80;90.20;;;;;;5092315;28;20051;-77
2021/03/14 07:04:36;;;;;;;11.38;2.00;;;4.80;90.20;;;;;;5092583;28;20031;-77
2021/03/14 07:07:02;;;;;;;9.23;2.50;;;4.80;90.20;;;;;;5092721;28;20024;-77
2021/03/14 07:09:28;;;;;;;17.70;3.60;;;4.80;90.30;;;;;;5092865;28;20039;-77
2021/03/14 07:11:54;;;;;;;16.52;2.58;;;4.80;90.30;;;;;;5092531;28;20031;-77
2021/03/14 07:14:20;;;;;;;10.50;2.33;;;4.80;90.40;;;;;;5074522;28;20025;-77
2021/03/14 07:16:51;;;;;;;12.93;2.45;;;4.80;90.40;;;;;;5092891;28;20416;-77
2021/03/14 07:19:25;;;;;;;18.52;2.63;;;4.80;90.40;;;;;;5092349;28;20550;-77
2021/03/14 07:22:11;;;;;;;10.20;2.60;;;4.90;90.40;;;;;;5093198;28;20040;-77
2021/03/14 07:24:44;;;;;;;11.55;2.30;;;4.90;90.40;;;;;;5096345;28;20017;-77
2021/03/14 07:27:11;;;;;;;17.10;2.65;;;4.90;90.30;;;;;;5096371;28;20103;-77
2021/03/14 07:29:37;;;;;;;13.27;3.15;;;5.00;90.30;;;;;;5095960;28;20055;-77
2021/03/14 07:32:04;;;;;;;9.48;2.38;;;5.00;90.20;;;;;;5078155;28;20032;-77
2021/03/14 07:34:30;;;;;;;10.52;2.85;;;5.10;90.20;;;;;;5096126;28;20114;-77
2021/03/14 07:36:56;;;;;;;17.70;3.63;;;5.10;90.30;;;;;;5096110;28;20032;-77
2021/03/14 07:39:22;;;;;;;17.58;3.70;;;5.10;90.20;;;;;;5096182;28;20155;-77
2021/03/14 07:41:49;;;;;;;12.95;3.10;;;5.10;90.20;;;;;;5096077;28;20571;-77
2021/03/14 07:44:18;;;;;;;13.15;3.70;;;5.10;90.30;;;;;;5058019;28;20049;-77
2021/03/14 07:46:44;;;;;;;12.15;3.30;;;5.10;90.40;;;;;;5076041;28;20029;-77
2021/03/14 07:49:14;;;;;;;15.38;3.60;;;5.20;90.50;;;;;;5086280;28;20024;-77
2021/03/14 07:51:41;;;;;;;;;;;5.30;90.60;;;;;;5093812;28;20032;-77
2021/03/14 07:54:11;;;;;;;13.93;3.47;;;5.30;90.60;;;;;;5110881;28;20284;-77
2021/03/14 07:56:38;;;;;;;13.98;3.85;;;5.40;90.50;;;;;;5101442;28;20044;-75
2021/03/14 07:59:05;;;;;;;11.10;4.15;;;5.40;90.40;;;;;;5096882;28;20028;-76
2021/03/14 08:01:32;;;;;;;9.73;3.38;;;5.40;90.30;;;;;;5095660;28;20034;-76
2021/03/14 08:03:59;;;;;;;10.52;2.75;;;5.40;90.20;;;;;;5095696;28;20028;-76
2021/03/14 08:06:48;;;;;;;18.17;3.97;;;5.40;90.10;;;;;;5095153;28;20030;-76
2021/03/14 08:09:41;;;;;;;8.18;3.05;;;5.40;90.10;;;;;;5095170;28;20536;-76
2021/03/14 08:12:32;;;;;;;10.23;3.17;;;5.50;90.10;;;;;;5076828;28;20067;-76
2021/03/14 08:14:57;;;;;;;11.93;3.28;;;5.50;90.00;;;;;;5095379;28;20035;-76
2021/03/14 08:17:36;;;;;;;9.85;3.28;;;5.50;89.90;;;;;;5077428;28;20757;-76
2021/03/14 08:20:04;;;;;;;13.75;3.28;;;5.50;90.00;;;;;;5095623;28;20038;-76
2021/03/14 08:22:42;;;;;;;12.90;2.90;;;5.60;90.10;;;;;;5076863;28;20058;-76
2021/03/14 08:25:23;;;;;;;9.90;2.95;;;5.60;90.20;;;;;;5095468;28;20082;-76
2021/03/14 08:27:54;;;;;;;10.77;3.35;;;5.70;90.20;;;;;;5095491;28;20024;-80
2021/03/14 08:30:32;;;;;;;9.73;3.50;;;5.70;90.20;;;;;;5095602;28;20012;-81
2021/03/14 08:33:21;;;;;;;12.60;3.42;;;5.80;90.20;;;;;;5095536;28;20032;-81
2021/03/14 08:35:48;;;;;;;13.35;3.70;;;5.80;90.20;;;;;;5095435;28;20476;-81
2021/03/14 08:38:31;;;;;;;11.10;3.85;;;5.80;90.20;;;;;;5095405;28;20070;-80
2021/03/14 08:41:23;;;;;;;10.77;4.40;;;5.80;90.20;;;;;;5095448;28;20051;-82
2021/03/14 08:43:57;;;;;;;10.43;4.35;;;5.90;90.10;;;;;;5077236;28;20028;-80
2021/03/14 08:46:45;;;;;;;12.45;4.50;;;5.80;90.10;;;;;;5077208;28;20039;-80
2021/03/14 08:49:13;;;;;;;11.25;4.25;;;5.90;90.10;;;;;;5095169;28;20036;-80
2021/03/14 08:51:39;;;;;;;14.27;4.60;;;5.90;90.00;;;;;;5094899;28;20080;-81
2021/03/14 08:54:05;;;;;;;12.55;4.47;;;5.90;89.90;;;;;;5095347;28;20024;-80
2021/03/14 08:56:31;;;;;;;18.35;5.78;;;5.90;89.80;;;;;;5095030;28;20032;-80
2021/03/14 08:59:09;;;;;;;13.75;4.70;;;5.90;90.10;;;;;;5094806;28;20024;-80
2021/03/14 09:01:35;;;;;;;14.48;5.18;;;6.00;89.80;;;;;;5094475;28;20480;-80
2021/03/14 09:04:11;;;;;;;13.48;5.68;;;6.00;89.70;;;;;;5076753;28;20035;-80
2021/03/14 09:06:37;;;;;;;18.95;7.13;;;6.00;89.80;;;;;;5076849;28;20063;-80
2021/03/14 09:09:11;;;;;;;13.52;7.15;;;6.10;89.80;;;;;;5076672;28;20078;-80
2021/03/14 09:11:38;;;;;;;13.02;6.13;;;6.10;89.80;;;;;;5076771;28;20046;-80
2021/03/14 09:14:28;;;;;;;13.57;6.93;;;6.10;89.80;;;;;;5094587;28;20477;-80
2021/03/14 09:17:00;;;;;;;13.23;6.40;;;6.10;90.00;;;;;;5094365;28;20032;-80
2021/03/14 09:19:39;;;;;;;18.45;8.18;;;6.00;90.20;;;;;;5094827;28;20399;-80
2021/03/14 09:22:13;;;;;;;11.65;7.00;;;6.10;90.40;;;;;;5094736;28;20061;-80
2021/03/14 09:24:47;;;;;;;16.08;7.60;;;6.10;90.40;;;;;;5091182;28;20035;-78
2021/03/14 09:27:19;;;;;;;15.25;7.97;;;6.10;90.60;;;;;;5094738;28;20078;-78
2021/03/14 09:30:10;;;;;;;11.43;7.03;;;6.10;90.60;;;;;;5094398;28;20032;-79
2021/03/14 09:32:36;;;;;;;15.70;8.57;;;6.10;90.70;;;;;;5094434;28;20028;-79
2021/03/14 09:35:17;;;;;;;17.55;9.38;;;6.10;90.90;;;;;;5094392;28;20078;-79
2021/03/14 09:37:46;;;;;;;14.52;8.60;;;6.10;91.10;;;;;;5076186;28;20027;-79
2021/03/14 09:40:20;;;;;;;13.15;7.63;;;6.10;91.10;;;;;;5094818;28;20028;-79
2021/03/14 09:42:48;;;;;;;11.15;7.68;;;6.20;91.00;;;;;;5094273;28;20444;-78
2021/03/14 09:45:15;;;;;;;10.90;7.65;;;6.20;91.10;;;;;;5093337;28;20497;-79
2021/03/14 09:48:00;;;;;;;13.13;8.32;;;6.30;91.10;;;;;;5094055;28;20097;-78
2021/03/14 09:50:28;;;;;;;14.48;8.55;;;6.40;91.10;;;;;;5094117;28;20115;-79
2021/03/14 09:52:59;;;;;;;12.65;8.85;;;6.50;91.00;;;;;;5075717;28;20051;-78
2021/03/14 09:55:49;;;;;;;13.52;9.10;;;6.50;91.10;;;;;;5094173;28;20044;-78
2021/03/14 09:58:17;;;;;;;13.13;8.40;;;6.60;91.10;;;;;;5092984;28;20036;-78
2021/03/14 10:00:46;;;;;;;13.27;7.70;;;6.60;90.90;;;;;;5094063;28;20469;-78
2021/03/14 10:03:14;;;;;;;11.13;7.82;;;6.70;90.90;;;;;;5093885;28;20032;-78
2021/03/14 10:05:41;;;;;;;13.90;8.10;;;6.70;90.90;;;;;;5094138;28;20481;-78
2021/03/14 10:08:08;;;;;;;12.35;7.72;;;6.80;91.10;;;;;;5093544;28;20032;-78
2021/03/14 10:10:36;;;;;;;10.20;7.75;;;6.80;91.20;;;;;;5093160;28;20024;-78
2021/03/14 10:13:07;;;;;;;10.35;7.70;;;6.90;91.00;;;;;;5093709;28;20052;-78
2021/03/14 10:15:34;;;;;;;12.32;8.43;;;7.00;91.00;;;;;;5093800;28;20135;-79
2021/03/14 10:18:01;;;;;;;9.00;7.10;;;7.10;91.30;;;;;;5094116;28;20492;-78
2021/03/14 10:20:27;;;;;;;11.05;7.28;;;7.50;91.20;;;;;;5092911;28;20043;-77
2021/03/14 10:23:08;;;;;;;9.15;7.07;;;7.70;90.60;;;;;;5093455;28;20020;-78
2021/03/14 10:25:36;;;;;;;10.38;7.00;;;7.90;90.10;;;;;;5093509;28;20024;-79
2021/03/14 10:28:14;;;;;;;7.97;5.90;;;8.00;89.60;;;;;;5093621;28;20046;-79
2021/03/14 10:30:42;;;;;;;7.90;6.10;;;8.10;89.40;;;;;;5074595;28;20024;-77
2021/03/14 10:33:27;;;;;;;7.32;4.95;;;8.20;89.00;;;;;;5093211;28;20062;-78
2021/03/14 10:36:03;;;;;;;7.15;6.22;;;8.10;86.90;;;;;;5093326;28;20101;-76
2021/03/14 10:38:36;;;;;;;8.48;6.55;;;8.20;87.40;;;;;;5093190;28;20032;-77
2021/03/14 10:41:35;;;;;;;16.38;7.07;;;8.20;87.40;;;;;;5093576;28;20118;-78
2021/03/14 10:44:02;;;;;;;13.30;6.05;;;8.20;87.40;;;;;;5073274;28;20024;-79
2021/03/14 10:46:37;;;;;;;6.90;6.20;;;8.20;87.00;;;;;;5093352;28;20040;-79
2021/03/14 10:49:08;;;;;;;8.10;6.35;;;8.10;87.20;;;;;;5074398;28;20063;-81
2021/03/14 10:51:35;;;;;;;10.30;6.35;;;8.00;86.30;;;;;;5077011;28;20033;-79
2021/03/14 10:54:06;;;;;;;8.73;5.03;;;8.00;86.50;;;;;;5092980;28;20020;-79
2021/03/14 10:56:48;;;;;;;11.98;5.65;;;8.00;86.60;;;;;;5056891;28;20025;-79
2021/03/14 10:59:27;;;;;;;6.43;5.15;;;8.00;85.90;;;;;;5097076;28;20082;-78
2021/03/14 11:01:58;;;;;;;;;;;8.20;86.40;;;;;;5079646;28;20028;-79
2021/03/14 11:04:33;;;;;;;8.60;5.45;;;8.30;86.50;;;;;;5097392;28;19932;-78
2021/03/14 11:06:58;;;;;;;12.45;5.97;;;8.40;86.50;;;;;;5097308;28;20477;-78
2021/03/14 11:09:26;;;;;;;10.80;6.20;;;8.50;86.20;;;;;;5097019;28;20035;-79
2021/03/14 11:11:53;;;;;;;10.80;5.65;;;8.70;85.80;;;;;;5079730;28;20126;-79
2021/03/14 11:14:27;;;;;;;10.82;5.45;;;8.70;85.00;;;;;;5097243;28;20020;-79
2021/03/14 11:17:14;;;;;;;12.15;5.20;;;8.70;84.70;;;;;;5097291;28;20384;-78
2021/03/14 11:19:45;;;;;;;12.50;6.53;;;8.70;83.90;;;;;;5076789;28;20048;-79
2021/03/14 11:22:19;;;;;;;12.80;6.18;;;8.70;84.20;;;;;;5076784;28;20021;-79
2021/03/14 11:24:45;;;;;;;13.52;6.30;;;8.70;84.90;;;;;;5091349;28;20024;-79
2021/03/14 11:27:11;;;;;;;14.45;5.80;;;8.80;84.50;;;;;;5078226;28;20038;-79
2021/03/14 11:29:38;;;;;;;7.85;4.72;;;8.80;84.10;;;;;;5095274;28;20055;-79
2021/03/14 11:32:05;;;;;;;10.40;5.00;;;8.80;82.90;;;;;;5096373;28;20028;-78
2021/03/14 11:34:31;;;;;;;9.05;5.15;;;8.80;83.60;;;;;;5096464;28;20070;-79
2021/03/14 11:36:57;;;;;;;10.70;5.30;;;8.80;83.20;;;;;;5061478;28;20033;-78
2021/03/14 11:39:22;;;;;;;8.13;4.68;;;9.00;83.20;;;;;;5096072;28;20118;-79
2021/03/14 11:41:48;;;;;;;7.13;3.97;;;9.00;82.80;;;;;;5096054;28;20020;-80
2021/03/14 11:44:14;;;;;;;6.18;4.10;;;9.10;82.90;;;;;;5078247;28;20057;-80
2021/03/14 11:46:41;;;;;;;6.32;4.40;;;9.30;81.30;;;;;;5077579;28;20032;-80
2021/03/14 11:49:07;;;;;;;8.18;4.50;;;9.40;82.50;;;;;;5095358;28;20060;-81
2021/03/14 11:51:32;;;;;;;13.93;4.80;;;9.50;81.00;;;;;;5095339;28;20110;-81
2021/03/14 11:53:59;;;;;;;7.70;4.53;;;9.60;80.40;;;;;;5097900;28;20499;-81
2021/03/14 11:56:25;;;;;;;9.88;5.22;;;9.60;79.70;;;;;;5099753;28;20034;-81
2021/03/14 11:58:51;;;;;;;7.80;4.63;;;9.50;80.70;;;;;;5077674;28;20032;-81
2021/03/14 12:01:17;;;;;;;5.65;3.28;;;9.50;80.70;;;;;;5077744;28;20466;-81
2021/03/14 12:03:42;;;;;;;7.65;4.15;;;9.50;79.20;;;;;;5060208;28;20024;-81
2021/03/14 12:06:08;;;;;;;7.90;3.13;;;9.50;79.50;;;;;;5095834;28;20032;-81
2021/03/14 12:08:34;;;;;;;6.40;3.03;;;9.40;78.80;;;;;;5077166;28;20028;-80
2021/03/14 12:11:03;;;;;;;8.45;2.88;;;9.40;78.90;;;;;;5077676;28;20430;-79
2021/03/14 12:13:29;;;;;;;6.97;3.05;;;9.30;79.60;;;;;;5095371;28;20024;-79
2021/03/14 12:15:54;;;;;;;10.05;3.47;;;9.20;78.00;;;;;;5057170;28;20040;-80
2021/03/14 12:18:20;;;;;;;6.32;2.92;;;9.20;79.10;;;;;;5074453;28;20035;-80
2021/03/14 12:20:46;;;;;;;8.38;2.92;;;9.10;80.30;;;;;;5060783;28;20126;-80
2021/03/14 12:23:12;;;;;;;5.43;2.60;;;9.20;79.00;;;;;;5095960;28;20117;-81
2021/03/14 12:25:38;;;;;;;6.38;2.10;;;9.10;78.10;;;;;;5096147;28;20438;-80
2021/03/14 12:28:04;;;;;;;4.03;2.05;;;9.20;76.40;;;;;;5077766;28;20036;-80
2021/03/14 12:30:30;;;;;;;8.13;2.70;;;9.20;77.30;;;;;;5095554;28;20081;-80
2021/03/14 12:32:55;;;;;;;7.55;2.83;;;9.20;78.00;;;;;;5077525;28;20024;-80
2021/03/14 12:35:22;;;;;;;6.10;2.55;;;9.30;77.60;;;;;;5095712;28;20042;-80
2021/03/14 12:37:47;;;;;;;3.17;1.90;;;9.30;77.10;;;;;;5095643;28;20107;-80
2021/03/14 12:40:14;;;;;;;6.40;1.80;;;9.40;75.80;;;;;;5095757;28;20454;-80
2021/03/14 12:42:39;;;;;;;6.43;1.95;;;9.40;75.90;;;;;;5061003;28;20033;-80
2021/03/14 12:45:06;;;;;;;14.40;2.00;;;9.40;76.30;;;;;;5081741;28;20036;-80
2021/03/14 12:47:31;;;;;;;8.02;2.17;;;9.50;76.50;;;;;;5101437;28;20046;-81
2021/03/14 12:50:00;;;;;;;5.53;2.00;;;9.50;74.80;;;;;;5078765;28;20111;-80
2021/03/14 12:52:26;;;;;;;6.00;1.80;;;9.50;76.10;;;;;;5094650;28;20048;-80
2021/03/14 12:54:52;;;;;;;5.45;1.60;;;9.50;73.40;;;;;;5076990;28;20119;-81
2021/03/14 12:57:17;;;;;;;7.00;1.73;;;9.60;74.90;;;;;;5076745;28;20024;-80
2021/03/14 12:59:43;;;;;;;6.32;1.98;;;9.80;74.50;;;;;;5077076;28;20181;-80
2021/03/14 13:02:08;;;;;;;9.77;2.30;;;9.90;74.00;;;;;;5077437;28;20484;-81
2021/03/14 13:04:34;;;;;;;4.18;1.52;;;10.00;72.60;;;;;;5095763;28;20115;-80